Time;durP1;ratioP1;P1;durP2;ratioP2;P2;SDS_P1;SDS_P2;PMS_P1;PMS_P2;Temp;Humidity;BMP_temperature;BMP_pressure;BME280_temperature;BME280_humidity;BME280_pressure;Samples;Min_cycle;Max_cycle;Signal;HPM_P1;HPM_P2
2023/05/05 00:00:55;;;;;;;11.48;6.32;;;14.80;70.50;;;;;;5006373;28;20061;-87
2023/05/05 00:03:25;;;;;;;12.75;5.93;;;14.80;71.10;;;;;;4992594;28;20123;-88
2023/05/05 00:05:53;;;;;;;10.13;6.38;;;14.80;71.80;;;;;;4992710;28;20168;-88
2023/05/05 00:08:19;;;;;;;13.52;6.75;;;14.90;71.00;;;;;;5009228;28;20059;-87
2023/05/05 00:10:51;;;;;;;12.73;5.30;;;14.90;71.10;;;;;;5007784;28;20034;-87
2023/05/05 00:13:18;;;;;;;10.32;4.85;;;14.80;70.90;;;;;;5009367;28;20042;-87
2023/05/05 00:15:45;;;;;;;10.75;5.22;;;14.70;71.00;;;;;;4993060;28;20054;-87
2023/05/05 00:18:12;;;;;;;10.55;4.95;;;14.60;71.90;;;;;;5008193;28;20042;-87
2023/05/05 00:20:38;;;;;;;11.55;5.88;;;14.60;71.50;;;;;;5008855;28;20124;-87
2023/05/05 00:23:04;;;;;;;12.20;4.88;;;14.70;72.50;;;;;;5007995;28;20118;-87
2023/05/05 00:25:29;;;;;;;13.30;5.40;;;14.60;71.40;;;;;;5009011;28;20523;-87
2023/05/05 00:27:55;;;;;;;9.65;6.00;;;14.60;71.70;;;;;;5008934;28;20537;-87
2023/05/05 00:30:21;;;;;;;10.88;6.72;;;14.60;72.30;;;;;;5008673;28;20054;-87
2023/05/05 00:32:48;;;;;;;11.38;5.03;;;14.70;72.20;;;;;;5009243;28;20046;-87
2023/05/05 00:35:14;;;;;;;10.52;4.70;;;14.60;72.00;;;;;;4992823;28;20399;-87
2023/05/05 00:37:40;;;;;;;11.82;6.50;;;14.50;72.10;;;;;;5008702;28;20061;-86
2023/05/05 00:40:07;;;;;;;11.18;6.00;;;14.50;72.50;;;;;;4992148;28;20491;-87
2023/05/05 00:42:44;;;;;;;10.85;4.68;;;14.60;72.50;;;;;;5008386;28;20497;-87
2023/05/05 00:45:11;;;;;;;12.52;6.40;;;14.50;72.30;;;;;;4992028;28;20050;-87
2023/05/05 00:47:38;;;;;;;9.90;4.72;;;14.50;72.80;;;;;;5008207;28;20462;-87
2023/05/05 00:50:08;;;;;;;12.02;6.32;;;14.50;72.40;;;;;;5008195;28;20542;-87
2023/05/05 00:52:37;;;;;;;11.75;4.60;;;14.50;73.10;;;;;;4991825;28;20045;-87
2023/05/05 00:55:07;;;;;;;10.02;5.00;;;14.50;72.60;;;;;;5007742;28;20073;-87
2023/05/05 00:57:34;;;;;;;14.32;6.40;;;14.40;72.80;;;;;;5008475;28;20088;-87
2023/05/05 01:00:01;;;;;;;12.57;6.45;;;14.50;73.50;;;;;;5008457;28;20050;-87
2023/05/05 01:02:27;;;;;;;9.63;4.43;;;14.50;73.30;;;;;;4991522;28;20058;-87
2023/05/05 01:04:54;;;;;;;9.85;4.95;;;14.50;72.90;;;;;;5008504;28;20522;-87
2023/05/05 01:07:40;;;;;;;11.73;6.25;;;14.40;73.30;;;;;;4991604;28;20030;-87
2023/05/05 01:10:12;;;;;;;10.48;6.18;;;14.50;73.60;;;;;;5008632;28;20042;-87
2023/05/05 01:12:38;;;;;;;12.23;5.32;;;14.40;73.70;;;;;;4991681;28;20041;-87
2023/05/05 01:15:12;;;;;;;13.00;5.18;;;14.40;73.60;;;;;;4992354;28;20053;-87
2023/05/05 01:18:02;;;;;;;11.50;6.35;;;14.30;73.70;;;;;;5007894;28;20958;-87
2023/05/05 01:20:36;;;;;;;10.45;4.95;;;14.30;75.10;;;;;;4991759;28;20048;-87
2023/05/05 01:23:06;;;;;;;11.93;4.85;;;14.30;74.10;;;;;;4992106;28;20117;-87
2023/05/05 01:25:50;;;;;;;13.80;5.60;;;14.30;74.90;;;;;;5007864;28;20034;-87
2023/05/05 01:28:26;;;;;;;11.40;7.13;;;14.20;74.60;;;;;;4992020;28;20067;-87
2023/05/05 01:31:25;;;;;;;11.38;6.63;;;14.20;75.10;;;;;;5007936;28;20048;-87
2023/05/05 01:34:01;;;;;;;10.93;5.20;;;14.30;75.00;;;;;;5008233;28;20726;-87
2023/05/05 01:36:41;;;;;;;12.00;6.75;;;14.20;74.80;;;;;;5010743;28;20439;-87
2023/05/05 01:39:09;;;;;;;12.85;5.35;;;14.30;75.50;;;;;;5012055;28;20046;-87
2023/05/05 01:41:46;;;;;;;12.13;6.25;;;14.20;75.00;;;;;;5010674;28;20064;-87
2023/05/05 01:44:15;;;;;;;8.90;4.38;;;14.20;75.60;;;;;;5011813;28;20046;-87
2023/05/05 01:46:41;;;;;;;11.85;4.60;;;14.20;75.30;;;;;;5011037;28;20077;-87
2023/05/05 01:49:09;;;;;;;11.05;5.22;;;14.10;75.70;;;;;;5011499;28;20507;-87
2023/05/05 01:51:36;;;;;;;9.85;5.00;;;14.10;75.80;;;;;;5011515;28;20132;-87
2023/05/05 01:54:06;;;;;;;11.75;6.45;;;14.10;76.00;;;;;;5010729;28;20107;-87
2023/05/05 01:56:36;;;;;;;13.02;6.60;;;14.10;76.80;;;;;;5011251;28;20042;-87
2023/05/05 01:59:03;;;;;;;10.43;4.80;;;14.20;76.80;;;;;;5010618;28;20038;-87
2023/05/05 02:01:30;;;;;;;11.07;5.65;;;14.10;76.50;;;;;;5011229;28;20042;-87
2023/05/05 02:03:57;;;;;;;12.23;6.28;;;14.00;76.60;;;;;;5011020;28;20100;-87
2023/05/05 02:06:24;;;;;;;11.48;6.35;;;14.10;77.40;;;;;;5010420;28;20121;-87
2023/05/05 02:08:51;;;;;;;9.88;5.05;;;14.10;77.30;;;;;;5010841;28;20037;-87
2023/05/05 02:11:18;;;;;;;13.02;6.55;;;14.00;77.00;;;;;;5010730;28;20616;-87
2023/05/05 02:13:44;;;;;;;10.80;4.90;;;14.00;77.80;;;;;;5009851;28;20113;-87
2023/05/05 02:16:11;;;;;;;13.57;4.97;;;14.00;77.40;;;;;;5010834;28;20096;-87
2023/05/05 02:18:37;;;;;;;11.43;6.25;;;13.90;77.30;;;;;;4994023;28;20077;-87
2023/05/05 02:21:03;;;;;;;14.93;6.50;;;13.90;77.90;;;;;;4994347;28;20073;-87
2023/05/05 02:23:29;;;;;;;10.07;4.30;;;14.00;77.90;;;;;;4994364;28;20045;-87
2023/05/05 02:26:02;;;;;;;12.80;4.43;;;13.90;77.60;;;;;;5009990;28;20045;-87
2023/05/05 02:28:39;;;;;;;;;;;13.90;77.80;;;;;;5010734;28;20804;-87
2023/05/05 02:31:05;;;;;;;11.40;4.25;;;13.80;78.50;;;;;;5010114;28;19917;-87
2023/05/05 02:33:33;;;;;;;12.25;6.85;;;13.70;78.20;;;;;;5010912;28;20042;-87
2023/05/05 02:36:18;;;;;;;10.20;4.63;;;13.80;79.00;;;;;;4994082;28;20042;-87
2023/05/05 02:38:45;;;;;;;10.60;4.90;;;13.80;78.40;;;;;;5010648;28;20044;-87
2023/05/05 02:41:15;;;;;;;10.27;6.35;;;13.70;79.00;;;;;;4993295;28;20057;-87
2023/05/05 02:43:42;;;;;;;11.85;6.65;;;13.70;79.70;;;;;;5010142;28;20040;-87
2023/05/05 02:46:08;;;;;;;13.75;6.28;;;13.80;79.50;;;;;;5010001;28;20045;-87
2023/05/05 02:48:34;;;;;;;11.38;4.88;;;13.80;79.60;;;;;;5009641;28;20053;-87
2023/05/05 02:50:59;;;;;;;12.95;5.03;;;13.70;80.00;;;;;;4993802;28;20076;-87
2023/05/05 02:53:26;;;;;;;10.07;6.03;;;13.60;80.00;;;;;;4993116;28;20073;-87
2023/05/05 02:55:56;;;;;;;12.52;7.25;;;13.70;81.20;;;;;;4994091;28;20416;-87
2023/05/05 02:58:30;;;;;;;9.80;4.70;;;13.70;82.00;;;;;;5009676;28;20061;-87
2023/05/05 03:01:10;;;;;;;12.32;4.63;;;13.60;81.20;;;;;;5009961;28;20058;-87
2023/05/05 03:04:06;;;;;;;8.23;4.25;;;13.60;81.70;;;;;;5009977;28;20536;-87
2023/05/05 03:06:42;;;;;;;11.23;6.80;;;13.50;82.40;;;;;;5013604;28;20426;-87
2023/05/05 03:09:13;;;;;;;9.40;4.72;;;13.60;83.70;;;;;;5010456;28;20040;-87
2023/05/05 03:12:05;;;;;;;8.90;5.22;;;13.50;83.00;;;;;;5009550;28;20069;-87
2023/05/05 03:14:37;;;;;;;9.57;4.65;;;13.50;83.80;;;;;;4994008;28;20104;-87
2023/05/05 03:17:04;;;;;;;10.75;4.97;;;13.50;83.50;;;;;;5010014;28;20037;-87
2023/05/05 03:19:30;;;;;;;13.00;5.57;;;13.50;83.70;;;;;;5009799;28;20077;-87
2023/05/05 03:21:56;;;;;;;10.95;6.75;;;13.50;84.00;;;;;;5010017;28;20053;-87
2023/05/05 03:24:22;;;;;;;10.95;6.65;;;13.50;85.20;;;;;;4993022;28;20037;-87
2023/05/05 03:26:49;;;;;;;9.10;5.03;;;13.60;85.00;;;;;;5009062;28;20049;-87
2023/05/05 03:29:15;;;;;;;12.40;5.07;;;13.50;84.60;;;;;;4993402;28;20045;-87
2023/05/05 03:31:40;;;;;;;10.88;5.13;;;13.40;84.90;;;;;;5008406;28;20124;-87
2023/05/05 03:34:07;;;;;;;12.73;7.22;;;13.40;85.00;;;;;;5009313;28;20507;-87
2023/05/05 03:36:33;;;;;;;9.18;4.47;;;13.40;86.90;;;;;;4992625;28;20120;-87
2023/05/05 03:38:59;;;;;;;11.50;6.93;;;13.40;85.60;;;;;;4992477;28;20037;-87
2023/05/05 03:41:26;;;;;;;12.05;6.43;;;13.40;86.50;;;;;;4991878;28;20061;-87
2023/05/05 03:43:52;;;;;;;9.88;4.70;;;13.50;86.10;;;;;;4992257;28;20033;-87
2023/05/05 03:46:18;;;;;;;12.63;5.13;;;13.40;85.50;;;;;;5009337;28;20107;-87
2023/05/05 03:48:43;;;;;;;9.25;5.20;;;13.30;86.10;;;;;;5008724;28;20045;-87
2023/05/05 03:51:09;;;;;;;10.98;4.78;;;13.30;86.40;;;;;;4992568;28;20591;-87
2023/05/05 03:53:35;;;;;;;14.60;7.55;;;13.20;86.80;;;;;;5008780;28;20656;-87
2023/05/05 03:56:00;;;;;;;10.07;5.22;;;13.30;88.40;;;;;;4992071;28;20042;-87
2023/05/05 03:58:26;;;;;;;10.07;4.70;;;13.30;87.10;;;;;;4992219;28;20053;-87
2023/05/05 04:00:51;;;;;;;11.60;4.90;;;13.20;87.70;;;;;;5007964;28;20462;-87
2023/05/05 04:03:17;;;;;;;11.15;6.80;;;13.20;88.10;;;;;;4993249;28;20033;-87
2023/05/05 04:05:43;;;;;;;11.23;5.57;;;13.20;89.90;;;;;;5009335;28;20121;-87
2023/05/05 04:08:08;;;;;;;9.50;5.15;;;13.20;89.20;;;;;;5009062;28;20049;-87
2023/05/05 04:10:34;;;;;;;12.07;7.38;;;13.20;90.10;;;;;;4992879;28;20620;-87
2023/05/05 04:13:00;;;;;;;9.93;4.82;;;13.20;90.80;;;;;;5007080;28;20388;-87
2023/05/05 04:15:25;;;;;;;9.50;4.80;;;13.20;90.10;;;;;;5007464;28;20664;-86
2023/05/05 04:17:51;;;;;;;12.07;5.38;;;13.10;90.50;;;;;;5007784;28;20411;-85
2023/05/05 04:20:17;;;;;;;9.63;5.57;;;13.10;90.90;;;;;;4998843;28;20042;-86
2023/05/05 04:22:42;;;;;;;11.40;7.20;;;13.10;91.00;;;;;;4988200;28;20121;-86
2023/05/05 04:25:08;;;;;;;12.77;7.60;;;13.10;93.60;;;;;;4992618;28;20034;-87
2023/05/05 04:27:34;;;;;;;11.60;7.57;;;13.00;93.80;;;;;;5021847;28;20077;-87
2023/05/05 04:30:00;;;;;;;10.90;5.22;;;13.00;94.30;;;;;;4991296;28;20030;-87
2023/05/05 04:32:26;;;;;;;12.73;5.40;;;12.90;93.40;;;;;;5007634;28;20066;-87
2023/05/05 04:34:52;;;;;;;12.98;5.03;;;12.90;93.60;;;;;;4991758;28;20126;-87
2023/05/05 04:37:17;;;;;;;14.10;6.28;;;12.90;93.80;;;;;;5007018;28;20038;-87
2023/05/05 04:39:43;;;;;;;10.77;7.18;;;12.90;94.20;;;;;;5007945;28;20464;-87
2023/05/05 04:42:09;;;;;;;12.60;7.63;;;12.90;96.30;;;;;;5007490;28;20034;-87
2023/05/05 04:44:35;;;;;;;12.18;5.57;;;13.00;97.30;;;;;;5008622;28;20419;-87
2023/05/05 04:47:00;;;;;;;10.98;5.95;;;13.00;95.70;;;;;;5008312;28;20128;-86
2023/05/05 04:49:30;;;;;;;10.50;5.30;;;13.00;96.20;;;;;;5007826;28;20498;-87
2023/05/05 04:51:56;;;;;;;13.13;7.78;;;12.90;96.00;;;;;;4992040;28;20057;-87
2023/05/05 04:54:21;;;;;;;11.82;7.35;;;13.00;97.80;;;;;;5007655;28;20042;-87
2023/05/05 04:56:47;;;;;;;13.13;5.57;;;13.10;97.50;;;;;;5008232;28;20044;-86
2023/05/05 04:59:14;;;;;;;10.93;5.00;;;13.10;96.10;;;;;;5008265;28;20034;-86
2023/05/05 05:01:40;;;;;;;11.77;5.47;;;13.00;96.10;;;;;;4990434;28;20042;-86
2023/05/05 05:04:06;;;;;;;10.48;5.13;;;13.00;96.60;;;;;;5007869;28;20099;-86
2023/05/05 05:06:32;;;;;;;13.38;8.00;;;12.90;96.80;;;;;;4990320;28;20073;-86
2023/05/05 05:08:58;;;;;;;9.80;5.45;;;13.00;99.10;;;;;;4992389;28;20076;-87
2023/05/05 05:11:24;;;;;;;11.05;5.65;;;13.00;97.40;;;;;;4995013;28;20084;-86
2023/05/05 05:13:49;;;;;;;13.48;5.22;;;13.00;97.30;;;;;;4995103;28;20037;-87
2023/05/05 05:16:15;;;;;;;13.10;5.82;;;13.00;97.30;;;;;;5011569;28;20037;-87
2023/05/05 05:18:41;;;;;;;12.38;7.30;;;13.00;97.40;;;;;;5011339;28;20407;-87
2023/05/05 05:21:07;;;;;;;13.35;7.32;;;13.10;98.70;;;;;;4994406;28;20115;-87
2023/05/05 05:23:33;;;;;;;11.40;7.72;;;13.10;97.90;;;;;;5011445;28;20049;-86
2023/05/05 05:25:58;;;;;;;11.75;5.32;;;13.10;98.00;;;;;;5010855;28;20077;-86
2023/05/05 05:28:24;;;;;;;12.63;7.88;;;13.10;96.80;;;;;;4994515;28;20077;-87
2023/05/05 05:30:50;;;;;;;12.73;5.60;;;13.10;99.60;;;;;;5002126;28;20042;-87
2023/05/05 05:33:16;;;;;;;11.38;5.03;;;13.00;97.90;;;;;;4995327;28;20042;-86
2023/05/05 05:35:42;;;;;;;13.23;6.20;;;13.00;98.20;;;;;;5011133;28;20507;-86
2023/05/05 05:38:07;;;;;;;9.85;5.15;;;13.00;98.80;;;;;;5010705;28;20117;-87
2023/05/05 05:40:33;;;;;;;12.18;7.50;;;13.00;98.40;;;;;;5011040;28;20034;-86
2023/05/05 05:42:58;;;;;;;11.52;5.47;;;13.10;99.30;;;;;;5009767;28;20041;-86
2023/05/05 05:45:24;;;;;;;12.23;7.32;;;13.10;97.80;;;;;;4992998;28;20042;-87
2023/05/05 05:47:50;;;;;;;11.73;5.22;;;13.10;99.90;;;;;;5008759;28;20049;-86
2023/05/05 05:50:15;;;;;;;14.38;6.60;;;13.20;98.80;;;;;;5009424;28;20147;-86
2023/05/05 05:52:41;;;;;;;11.23;7.53;;;13.20;98.60;;;;;;4992103;28;20050;-86
2023/05/05 05:55:07;;;;;;;9.45;5.13;;;13.30;99.90;;;;;;5005351;28;20084;-87
2023/05/05 05:57:33;;;;;;;11.82;5.55;;;13.40;98.10;;;;;;4994663;28;20060;-87
2023/05/05 05:59:58;;;;;;;13.15;7.85;;;13.40;98.00;;;;;;4994277;28;20406;-86
2023/05/05 06:02:25;;;;;;;13.10;7.68;;;13.50;98.80;;;;;;5009537;28;20038;-87
2023/05/05 06:04:51;;;;;;;11.18;5.72;;;13.60;97.10;;;;;;4994519;28;20048;-87
2023/05/05 06:07:17;;;;;;;9.70;5.38;;;13.60;95.90;;;;;;4993691;28;20120;-87
2023/05/05 06:09:43;;;;;;;11.75;7.82;;;13.60;95.90;;;;;;4994397;28;20501;-86
2023/05/05 06:12:08;;;;;;;10.95;6.03;;;13.60;97.50;;;;;;5010007;28;20038;-86
2023/05/05 06:14:34;;;;;;;10.93;4.95;;;13.60;96.50;;;;;;5010830;28;20046;-87
2023/05/05 06:17:00;;;;;;;11.02;6.35;;;13.60;96.30;;;;;;5011014;28;20499;-87
2023/05/05 06:19:26;;;;;;;14.77;8.30;;;13.60;96.30;;;;;;4978406;28;20057;-86
2023/05/05 06:21:51;;;;;;;11.77;8.15;;;13.60;97.20;;;;;;5023711;28;20081;-86
2023/05/05 06:24:17;;;;;;;12.30;8.13;;;13.70;97.30;;;;;;5026823;28;20046;-87
2023/05/05 06:26:42;;;;;;;15.30;8.27;;;13.70;97.60;;;;;;4993724;28;20045;-87
2023/05/05 06:29:08;;;;;;;13.57;6.45;;;13.80;97.30;;;;;;5010649;28;20038;-87
2023/05/05 06:31:34;;;;;;;10.68;5.72;;;13.90;96.80;;;;;;4993382;28;20041;-87
2023/05/05 06:34:00;;;;;;;12.75;6.90;;;13.90;97.50;;;;;;5010514;28;20504;-87
2023/05/05 06:36:25;;;;;;;13.35;6.93;;;14.00;97.70;;;;;;5010749;28;20038;-87
2023/05/05 06:38:51;;;;;;;11.15;8.18;;;14.10;97.10;;;;;;5009418;28;20026;-86
2023/05/05 06:41:17;;;;;;;15.23;8.18;;;14.20;96.10;;;;;;5009216;28;20521;-87
2023/05/05 06:43:43;;;;;;;14.93;6.75;;;14.30;95.30;;;;;;5009948;28;20046;-88
2023/05/05 06:46:09;;;;;;;14.43;8.88;;;14.30;94.30;;;;;;5010528;28;20046;-87
2023/05/05 06:48:35;;;;;;;12.88;6.45;;;14.40;94.20;;;;;;4994208;28;20052;-87
2023/05/05 06:51:01;;;;;;;13.55;8.60;;;14.30;93.00;;;;;;4976922;28;20042;-87
2023/05/05 06:53:26;;;;;;;12.77;6.95;;;14.30;93.60;;;;;;4974843;28;20057;-87
2023/05/05 06:55:52;;;;;;;11.88;6.95;;;14.40;93.60;;;;;;5001555;28;20038;-88
2023/05/05 06:58:18;;;;;;;11.60;7.30;;;14.40;94.00;;;;;;5007768;28;20076;-87
2023/05/05 07:00:43;;;;;;;11.40;8.75;;;14.50;93.80;;;;;;4992631;28;20415;-86
2023/05/05 07:03:09;;;;;;;11.85;8.88;;;14.70;95.00;;;;;;5009187;28;20034;-87
2023/05/05 07:05:35;;;;;;;12.88;7.05;;;14.80;95.10;;;;;;4993264;28;20099;-87
2023/05/05 07:08:01;;;;;;;13.55;9.57;;;14.80;93.40;;;;;;4990695;28;20030;-88
2023/05/05 07:10:27;;;;;;;15.98;9.68;;;14.90;94.00;;;;;;4993165;28;20061;-88
2023/05/05 07:12:56;;;;;;;11.65;7.40;;;15.00;93.00;;;;;;4992611;28;20038;-88
2023/05/05 07:15:21;;;;;;;15.30;11.25;;;15.00;93.10;;;;;;5010009;28;20479;-88
2023/05/05 07:17:47;;;;;;;14.00;8.43;;;15.10;93.30;;;;;;4992424;28;20538;-88
2023/05/05 07:20:13;;;;;;;14.50;9.32;;;15.10;92.80;;;;;;4993282;28;20184;-88
2023/05/05 07:22:38;;;;;;;13.60;8.48;;;15.10;93.10;;;;;;4993075;28;20045;-88
2023/05/05 07:25:05;;;;;;;13.75;10.65;;;15.20;93.10;;;;;;4992346;28;20400;-87
2023/05/05 07:27:35;;;;;;;13.80;10.73;;;15.30;93.10;;;;;;4990668;28;20038;-88
2023/05/05 07:30:02;;;;;;;14.18;9.00;;;15.40;93.00;;;;;;4988039;28;20070;-88
2023/05/05 07:32:28;;;;;;;14.32;9.32;;;15.40;92.60;;;;;;5008867;28;20046;-88
2023/05/05 07:34:54;;;;;;;14.90;11.63;;;15.50;93.60;;;;;;4993893;28;20045;-88
2023/05/05 07:37:19;;;;;;;16.13;11.38;;;15.60;93.70;;;;;;4991961;28;20042;-88
2023/05/05 07:39:47;;;;;;;13.77;11.25;;;15.70;93.10;;;;;;5009853;28;20033;-88
2023/05/05 07:42:13;;;;;;;15.90;12.32;;;15.80;92.50;;;;;;5008719;28;20121;-88
2023/05/05 07:44:38;;;;;;;17.27;10.32;;;15.80;92.70;;;;;;5008778;28;20694;-88
2023/05/05 07:47:04;;;;;;;16.00;12.38;;;15.90;92.50;;;;;;5008731;28;20034;-88
2023/05/05 07:49:29;;;;;;;17.60;12.80;;;15.90;92.90;;;;;;5007996;28;20058;-88
2023/05/05 07:51:55;;;;;;;16.98;12.23;;;15.90;93.40;;;;;;4994913;28;20033;-88
2023/05/05 07:54:21;;;;;;;15.60;9.32;;;16.00;93.30;;;;;;5000962;28;20458;-88
2023/05/05 07:56:46;;;;;;;16.60;12.13;;;16.00;93.10;;;;;;5018574;28;20037;-88
2023/05/05 07:59:12;;;;;;;16.67;12.45;;;16.10;93.40;;;;;;5017919;28;20123;-87
2023/05/05 08:01:38;;;;;;;17.33;12.68;;;16.20;93.60;;;;;;5014953;28;20038;-88
2023/05/05 08:04:04;;;;;;;15.70;12.48;;;16.30;93.50;;;;;;5001794;28;20475;-88
2023/05/05 08:06:30;;;;;;;14.70;12.05;;;16.50;94.70;;;;;;5001680;28;20487;-88
2023/05/05 08:08:58;;;;;;;14.15;12.18;;;16.50;93.40;;;;;;5000151;28;20034;-88
2023/05/05 08:11:25;;;;;;;16.17;12.82;;;16.60;92.90;;;;;;5018606;28;20038;-88
2023/05/05 08:13:50;;;;;;;17.58;12.35;;;16.60;93.20;;;;;;5001317;28;20129;-88
2023/05/05 08:16:16;;;;;;;14.48;12.48;;;16.70;93.00;;;;;;5000603;28;20148;-88
2023/05/05 08:18:42;;;;;;;15.25;12.98;;;16.80;93.60;;;;;;5000826;28;20608;-88
2023/05/05 08:21:08;;;;;;;16.02;12.52;;;16.90;95.00;;;;;;5018114;28;20033;-88
2023/05/05 08:23:34;;;;;;;14.82;11.38;;;16.90;94.10;;;;;;5015438;28;20450;-88
2023/05/05 08:26:01;;;;;;;14.75;12.43;;;17.00;93.20;;;;;;5002362;28;20073;-88
2023/05/05 08:28:27;;;;;;;15.60;12.80;;;17.10;93.70;;;;;;5000552;28;20038;-88
2023/05/05 08:30:52;;;;;;;15.95;13.63;;;17.10;93.90;;;;;;5017150;28;20099;-88
2023/05/05 08:33:18;;;;;;;17.30;13.40;;;17.20;97.20;;;;;;5019242;28;20064;-88
2023/05/05 08:35:44;;;;;;;16.67;13.18;;;17.30;95.40;;;;;;5002914;28;20087;-88
2023/05/05 08:38:10;;;;;;;16.13;13.82;;;17.40;94.70;;;;;;5000872;28;20040;-88
2023/05/05 08:40:38;;;;;;;15.57;13.95;;;17.50;98.60;;;;;;4992767;28;20042;-88
2023/05/05 08:43:04;;;;;;;16.95;13.00;;;17.60;96.80;;;;;;5007239;28;20038;-89
2023/05/05 08:45:30;;;;;;;16.27;13.93;;;17.70;98.40;;;;;;4996328;28;20048;-88
2023/05/05 08:48:00;;;;;;;16.73;14.65;;;17.80;97.40;;;;;;4991676;28;20117;-88
2023/05/05 08:50:27;;;;;;;16.83;13.95;;;17.90;98.20;;;;;;5029216;28;20665;-89
2023/05/05 08:53:14;;;;;;;15.70;13.90;;;18.00;99.90;;;;;;4994022;28;20512;-89
2023/05/05 08:55:51;;;;;;;17.13;14.05;;;18.20;97.20;;;;;;5012505;28;20542;-88
2023/05/05 08:58:18;;;;;;;18.23;15.20;;;18.30;94.10;;;;;;4996261;28;20120;-88
2023/05/05 09:00:45;;;;;;;18.83;14.60;;;18.30;95.80;;;;;;4995532;28;20112;-88
2023/05/05 09:03:11;;;;;;;17.52;13.90;;;18.30;97.00;;;;;;4996366;28;20038;-89
2023/05/05 09:05:37;;;;;;;20.40;15.10;;;18.30;95.90;;;;;;5011509;28;20072;-88
2023/05/05 09:08:08;;;;;;;16.63;14.70;;;18.40;99.90;;;;;;4995621;28;20119;-88
2023/05/05 09:10:35;;;;;;;17.15;13.82;;;18.50;97.10;;;;;;5010846;28;20042;-88
2023/05/05 09:13:04;;;;;;;17.30;15.38;;;18.60;95.50;;;;;;5006611;28;20048;-89
2023/05/05 09:15:31;;;;;;;17.85;15.10;;;18.70;95.50;;;;;;5012432;28;20121;-88
2023/05/05 09:17:58;;;;;;;17.60;15.77;;;18.80;94.90;;;;;;5011899;28;20048;-89
2023/05/05 09:20:28;;;;;;;16.98;15.15;;;18.90;94.60;;;;;;5011431;28;20073;-88
2023/05/05 09:22:54;;;;;;;17.33;15.48;;;19.00;94.40;;;;;;5012070;28;20037;-88
2023/05/05 09:25:19;;;;;;;17.25;15.25;;;19.10;94.40;;;;;;5008805;28;20121;-88
2023/05/05 09:27:48;;;;;;;20.00;16.60;;;19.20;93.30;;;;;;5012351;28;20034;-88
2023/05/05 09:30:25;;;;;;;18.52;16.30;;;19.30;92.50;;;;;;4994533;28;20053;-89
2023/05/05 09:32:52;;;;;;;17.08;15.27;;;19.30;94.00;;;;;;5011912;28;20599;-88
2023/05/05 09:35:19;;;;;;;17.98;15.43;;;19.40;94.70;;;;;;5007994;28;20525;-88
2023/05/05 09:37:46;;;;;;;16.85;15.05;;;19.50;92.30;;;;;;4986129;28;20117;-88
2023/05/05 09:40:13;;;;;;;18.75;16.10;;;19.50;90.60;;;;;;4974591;28;20038;-88
2023/05/05 09:42:39;;;;;;;20.10;16.38;;;19.60;91.10;;;;;;5010553;28;20046;-88
2023/05/05 09:45:17;;;;;;;18.30;16.40;;;19.60;90.40;;;;;;4994547;28;20557;-88
2023/05/05 09:47:44;;;;;;;19.00;16.55;;;19.70;90.00;;;;;;4995297;28;20096;-88
2023/05/05 09:50:14;;;;;;;18.83;16.83;;;19.70;89.40;;;;;;4993854;28;20125;-89
2023/05/05 09:52:40;;;;;;;17.77;15.88;;;19.80;90.10;;;;;;5010688;28;20073;-89
2023/05/05 09:55:16;;;;;;;19.55;16.63;;;19.90;89.80;;;;;;4994155;28;20041;-89
2023/05/05 09:57:42;;;;;;;18.75;16.75;;;19.90;90.00;;;;;;4997556;28;20085;-89
2023/05/05 10:00:09;;;;;;;18.67;16.60;;;20.10;90.60;;;;;;4993951;28;20065;-88
2023/05/05 10:02:38;;;;;;;18.75;16.77;;;20.20;90.10;;;;;;4993594;28;20459;-89
2023/05/05 10:05:15;;;;;;;18.08;15.98;;;20.30;89.30;;;;;;5009118;28;20537;-89
2023/05/05 10:07:43;;;;;;;19.35;16.17;;;20.50;88.80;;;;;;5002360;28;20069;-89
2023/05/05 10:10:13;;;;;;;19.17;16.13;;;20.60;89.70;;;;;;5016560;28;20051;-88
2023/05/05 10:12:39;;;;;;;17.55;15.40;;;20.70;88.40;;;;;;5009422;28;20407;-89
2023/05/05 10:15:10;;;;;;;18.92;16.08;;;20.70;89.90;;;;;;5010769;28;20038;-88
2023/05/05 10:17:44;;;;;;;17.52;14.32;;;20.70;90.00;;;;;;4993731;28;20048;-88
2023/05/05 10:20:12;;;;;;;17.75;15.07;;;20.70;86.80;;;;;;4991694;28;20538;-88
2023/05/05 10:22:40;;;;;;;19.48;15.98;;;20.70;85.80;;;;;;5016621;28;20566;-88
2023/05/05 10:25:10;;;;;;;17.88;14.60;;;20.70;87.00;;;;;;5006472;28;20399;-89
2023/05/05 10:27:45;;;;;;;15.65;13.50;;;20.80;89.50;;;;;;4996875;28;20104;-88
2023/05/05 10:30:23;;;;;;;17.15;12.75;;;20.80;88.10;;;;;;5018722;28;20496;-89
2023/05/05 10:33:06;;;;;;;15.88;11.98;;;20.80;88.10;;;;;;5004358;28;20065;-88
2023/05/05 10:35:38;;;;;;;14.75;12.18;;;20.80;89.40;;;;;;5020257;28;20503;-88
2023/05/05 10:38:07;;;;;;;15.35;11.05;;;20.80;85.90;;;;;;5019835;28;20431;-88
2023/05/05 10:40:33;;;;;;;14.60;11.45;;;20.80;86.50;;;;;;4988697;28;20042;-89
2023/05/05 10:42:59;;;;;;;16.63;12.57;;;20.80;85.00;;;;;;4990669;28;20045;-89
2023/05/05 10:45:25;;;;;;;15.05;12.50;;;21.00;88.30;;;;;;5008808;28;20132;-89
2023/05/05 10:47:52;;;;;;;15.88;11.50;;;21.10;85.70;;;;;;4981464;28;20673;-88
2023/05/05 10:50:33;;;;;;;12.45;9.52;;;21.30;85.00;;;;;;5009557;28;20045;-89
2023/05/05 10:53:20;;;;;;;10.93;6.72;;;21.30;88.70;;;;;;5000497;28;20046;-88
2023/05/05 10:56:10;;;;;;;10.52;6.03;;;21.40;85.20;;;;;;5010686;28;20526;-88
2023/05/05 10:58:38;;;;;;;11.48;5.80;;;21.40;83.30;;;;;;4992931;28;20045;-89
2023/05/05 11:01:05;;;;;;;10.20;5.82;;;21.50;84.50;;;;;;5010423;28;20041;-89
2023/05/05 11:03:31;;;;;;;10.63;5.63;;;21.60;83.00;;;;;;5010442;28;20503;-89
2023/05/05 11:06:03;;;;;;;9.23;4.63;;;21.70;78.20;;;;;;4992734;28;20484;-88
2023/05/05 11:08:30;;;;;;;9.93;5.38;;;21.80;79.20;;;;;;5009801;28;20511;-88
2023/05/05 11:10:56;;;;;;;10.27;5.55;;;21.80;78.90;;;;;;5011865;28;20037;-88
2023/05/05 11:13:22;;;;;;;10.82;5.88;;;21.90;78.20;;;;;;5008386;28;20041;-88
2023/05/05 11:15:50;;;;;;;9.65;5.65;;;21.90;78.40;;;;;;5011655;28;20038;-88
2023/05/05 11:18:35;;;;;;;10.70;5.88;;;22.00;79.30;;;;;;4993962;28;20113;-89
2023/05/05 11:21:27;;;;;;;9.95;5.18;;;22.10;78.30;;;;;;4993521;28;20041;-88
2023/05/05 11:23:53;;;;;;;9.60;5.13;;;22.20;77.20;;;;;;5005657;28;20077;-88
2023/05/05 11:26:50;;;;;;;10.43;5.55;;;22.10;75.00;;;;;;4993093;28;20065;-88
2023/05/05 11:29:15;;;;;;;9.88;5.13;;;22.20;74.10;;;;;;5007962;28;20038;-89
2023/05/05 11:31:41;;;;;;;9.98;5.00;;;22.10;74.90;;;;;;5009388;28;20045;-89
2023/05/05 11:34:26;;;;;;;10.23;5.43;;;22.00;73.90;;;;;;5009474;28;20049;-88
2023/05/05 11:36:55;;;;;;;7.53;3.30;;;22.00;75.00;;;;;;4987139;28;20076;-89
2023/05/05 11:39:28;;;;;;;10.10;5.15;;;21.90;75.30;;;;;;4993554;28;20037;-89
2023/05/05 11:42:03;;;;;;;9.57;4.70;;;21.90;75.00;;;;;;5009569;28;20125;-89
2023/05/05 11:44:33;;;;;;;8.65;3.75;;;21.80;73.80;;;;;;5010608;28;20115;-88
2023/05/05 11:46:59;;;;;;;9.40;4.30;;;21.60;74.30;;;;;;4991142;28;20046;-88
2023/05/05 11:49:30;;;;;;;11.43;4.78;;;21.50;74.50;;;;;;4985794;28;20049;-88
2023/05/05 11:52:00;;;;;;;9.50;4.40;;;21.40;74.40;;;;;;4992944;28;20049;-89
2023/05/05 11:54:26;;;;;;;8.85;4.70;;;21.30;74.70;;;;;;4992880;28;20049;-89
2023/05/05 11:56:54;;;;;;;9.38;5.03;;;21.10;76.30;;;;;;4985792;28;20072;-89
2023/05/05 11:59:21;;;;;;;9.40;4.30;;;21.00;77.20;;;;;;5000353;28;20049;-89
2023/05/05 12:01:46;;;;;;;9.55;4.22;;;20.90;77.50;;;;;;5008097;28;20247;-89
2023/05/05 12:04:13;;;;;;;10.38;4.47;;;20.80;77.90;;;;;;5004124;28;20563;-88
2023/05/05 12:06:40;;;;;;;8.07;4.25;;;20.80;77.30;;;;;;5008255;28;20038;-88
2023/05/05 12:09:13;;;;;;;8.85;3.90;;;20.80;78.00;;;;;;5009016;28;20042;-88
2023/05/05 12:11:56;;;;;;;10.82;4.20;;;20.70;78.70;;;;;;5008764;28;20042;-88
2023/05/05 12:14:24;;;;;;;11.32;3.65;;;20.70;77.30;;;;;;5009385;28;20030;-88
2023/05/05 12:16:57;;;;;;;7.70;3.85;;;20.60;79.80;;;;;;5009242;28;20034;-89
2023/05/05 12:19:23;;;;;;;10.95;4.03;;;20.60;80.90;;;;;;4985245;28;20092;-89
2023/05/05 12:21:49;;;;;;;10.07;4.53;;;20.60;82.30;;;;;;5005477;28;20117;-88
2023/05/05 12:24:15;;;;;;;8.60;3.78;;;20.50;85.10;;;;;;5024900;28;20049;-88
2023/05/05 12:26:41;;;;;;;8.13;3.90;;;20.60;87.70;;;;;;4992868;28;20041;-89
2023/05/05 12:29:06;;;;;;;8.13;3.80;;;20.50;86.50;;;;;;4992732;28;20137;-89
2023/05/05 12:31:39;;;;;;;9.50;4.15;;;20.60;86.80;;;;;;4983371;28;20518;-88
2023/05/05 12:34:05;;;;;;;9.68;4.30;;;20.60;84.80;;;;;;4993011;28;20087;-89
2023/05/05 12:36:35;;;;;;;11.23;3.78;;;20.60;84.80;;;;;;4992123;28;20477;-88
2023/05/05 12:39:01;;;;;;;10.52;4.30;;;20.60;83.20;;;;;;5005131;28;20046;-88
2023/05/05 12:41:28;;;;;;;8.27;3.63;;;20.50;82.40;;;;;;5022149;28;20038;-89